sensor_id;sensor_type;location;lat;lon;timestamp;P1;durP1;ratioP1;P2;durP2;ratioP2
51515;SDS011;37603;55.614;37.326;2023-01-28T00:00:35;27.1;;;11.6;;
51515;SDS011;37603;55.614;37.326;2023-01-28T00:06:34;39.9;;;27.4;;
51515;SDS011;37603;55.614;37.326;2023-01-28T00:12:32;36.9;;;25.7;;
51515;SDS011;37603;55.614;37.326;2023-01-28T00:18:31;35.3;;;24.6;;
51515;SDS011;37603;55.614;37.326;2023-01-28T00:24:29;21.1;;;9.2;;
51515;SDS011;37603;55.614;37.326;2023-01-28T00:30:28;26.1;;;20.1;;
51515;SDS011;37603;55.614;37.326;2023-01-28T00:36:27;19.3;;;7.7;;
51515;SDS011;37603;55.614;37.326;2023-01-28T00:42:25;25.6;;;19.5;;
51515;SDS011;37603;55.614;37.326;2023-01-28T00:48:24;28.0;;;21.0;;
51515;SDS011;37603;55.614;37.326;2023-01-28T00:54:22;24.9;;;19.8;;
51515;SDS011;37603;55.614;37.326;2023-01-28T01:00:22;27.0;;;19.8;;
51515;SDS011;37603;55.614;37.326;2023-01-28T01:06:20;24.8;;;17.8;;
51515;SDS011;37603;55.614;37.326;2023-01-28T01:12:18;27.3;;;19.3;;
51515;SDS011;37603;55.614;37.326;2023-01-28T01:18:17;27.1;;;18.7;;
51515;SDS011;37603;55.614;37.326;2023-01-28T01:24:16;25.7;;;18.1;;
51515;SDS011;37603;55.614;37.326;2023-01-28T01:30:14;21.4;;;8.9;;
51515;SDS011;37603;55.614;37.326;2023-01-28T01:36:13;27.1;;;19.6;;
51515;SDS011;37603;55.614;37.326;2023-01-28T01:42:12;16.5;;;7.9;;
51515;SDS011;37603;55.614;37.326;2023-01-28T01:48:12;18.9;;;15.2;;
51515;SDS011;37603;55.614;37.326;2023-01-28T01:54:09;12.7;;;6.9;;
51515;SDS011;37603;55.614;37.326;2023-01-28T02:00:08;19.7;;;15.7;;
51515;SDS011;37603;55.614;37.326;2023-01-28T02:06:06;12.7;;;6.2;;
51515;SDS011;37603;55.614;37.326;2023-01-28T02:12:05;15.9;;;12.7;;
51515;SDS011;37603;55.614;37.326;2023-01-28T02:18:03;12.0;;;5.6;;
51515;SDS011;37603;55.614;37.326;2023-01-28T02:24:07;10.4;;;5.7;;
51515;SDS011;37603;55.614;37.326;2023-01-28T02:30:03;19.6;;;14.7;;
51515;SDS011;37603;55.614;37.326;2023-01-28T02:36:00;13.5;;;6.7;;
51515;SDS011;37603;55.614;37.326;2023-01-28T02:41:58;19.5;;;14.6;;
51515;SDS011;37603;55.614;37.326;2023-01-28T02:47:56;12.7;;;6.5;;
51515;SDS011;37603;55.614;37.326;2023-01-28T02:53:56;17.9;;;15.3;;
51515;SDS011;37603;55.614;37.326;2023-01-28T02:59:55;21.3;;;16.8;;
51515;SDS011;37603;55.614;37.326;2023-01-28T03:05:53;17.6;;;7.2;;
51515;SDS011;37603;55.614;37.326;2023-01-28T03:11:51;13.0;;;6.3;;
51515;SDS011;37603;55.614;37.326;2023-01-28T03:17:51;19.6;;;15.9;;
51515;SDS011;37603;55.614;37.326;2023-01-28T03:23:52;13.0;;;6.8;;
51515;SDS011;37603;55.614;37.326;2023-01-28T03:29:46;19.1;;;14.9;;
51515;SDS011;37603;55.614;37.326;2023-01-28T03:35:45;16.5;;;13.7;;
51515;SDS011;37603;55.614;37.326;2023-01-28T03:47:42;16.1;;;7.0;;
51515;SDS011;37603;55.614;37.326;2023-01-28T03:53:41;20.8;;;17.0;;
51515;SDS011;37603;55.614;37.326;2023-01-28T03:59:39;14.5;;;6.8;;
51515;SDS011;37603;55.614;37.326;2023-01-28T04:05:38;14.2;;;6.7;;
51515;SDS011;37603;55.614;37.326;2023-01-28T04:11:36;10.8;;;5.9;;
51515;SDS011;37603;55.614;37.326;2023-01-28T04:17:35;10.3;;;5.2;;
51515;SDS011;37603;55.614;37.326;2023-01-28T04:23:33;9.6;;;5.1;;
51515;SDS011;37603;55.614;37.326;2023-01-28T04:29:32;16.4;;;6.1;;
51515;SDS011;37603;55.614;37.326;2023-01-28T04:35:31;16.2;;;12.8;;
51515;SDS011;37603;55.614;37.326;2023-01-28T04:41:29;9.7;;;4.9;;
51515;SDS011;37603;55.614;37.326;2023-01-28T04:47:28;10.5;;;5.0;;
51515;SDS011;37603;55.614;37.326;2023-01-28T04:53:26;16.8;;;13.0;;
51515;SDS011;37603;55.614;37.326;2023-01-28T04:59:25;11.2;;;5.6;;
51515;SDS011;37603;55.614;37.326;2023-01-28T05:05:23;9.5;;;5.4;;
51515;SDS011;37603;55.614;37.326;2023-01-28T05:11:22;10.7;;;5.7;;
51515;SDS011;37603;55.614;37.326;2023-01-28T05:17:21;11.5;;;5.3;;
51515;SDS011;37603;55.614;37.326;2023-01-28T05:23:19;17.1;;;13.9;;
51515;SDS011;37603;55.614;37.326;2023-01-28T05:29:18;12.2;;;5.8;;
51515;SDS011;37603;55.614;37.326;2023-01-28T05:35:16;12.0;;;5.7;;
51515;SDS011;37603;55.614;37.326;2023-01-28T05:41:15;13.3;;;5.6;;
51515;SDS011;37603;55.614;37.326;2023-01-28T05:47:13;11.8;;;5.4;;
51515;SDS011;37603;55.614;37.326;2023-01-28T05:53:12;16.3;;;13.5;;
51515;SDS011;37603;55.614;37.326;2023-01-28T05:59:11;10.9;;;5.4;;
51515;SDS011;37603;55.614;37.326;2023-01-28T06:11:08;10.8;;;5.2;;
51515;SDS011;37603;55.614;37.326;2023-01-28T06:17:06;10.1;;;5.1;;
51515;SDS011;37603;55.614;37.326;2023-01-28T06:23:05;11.2;;;5.8;;
51515;SDS011;37603;55.614;37.326;2023-01-28T06:29:03;14.3;;;5.8;;
51515;SDS011;37603;55.614;37.326;2023-01-28T06:35:02;19.2;;;15.4;;
51515;SDS011;37603;55.614;37.326;2023-01-28T06:41:00;11.5;;;6.3;;
51515;SDS011;37603;55.614;37.326;2023-01-28T06:46:59;14.6;;;6.3;;
51515;SDS011;37603;55.614;37.326;2023-01-28T06:52:58;12.3;;;5.6;;
51515;SDS011;37603;55.614;37.326;2023-01-28T06:58:56;10.9;;;5.8;;
51515;SDS011;37603;55.614;37.326;2023-01-28T07:04:55;10.8;;;5.8;;
51515;SDS011;37603;55.614;37.326;2023-01-28T07:10:53;13.2;;;6.4;;
51515;SDS011;37603;55.614;37.326;2023-01-28T07:16:52;12.3;;;6.3;;
51515;SDS011;37603;55.614;37.326;2023-01-28T07:22:50;16.5;;;7.2;;
51515;SDS011;37603;55.614;37.326;2023-01-28T07:28:49;16.4;;;7.7;;
51515;SDS011;37603;55.614;37.326;2023-01-28T07:34:48;17.3;;;7.6;;
51515;SDS011;37603;55.614;37.326;2023-01-28T07:40:46;16.0;;;8.2;;
51515;SDS011;37603;55.614;37.326;2023-01-28T07:46:45;20.9;;;15.7;;
51515;SDS011;37603;55.614;37.326;2023-01-28T07:52:43;19.1;;;15.3;;
51515;SDS011;37603;55.614;37.326;2023-01-28T07:58:42;16.4;;;6.7;;
51515;SDS011;37603;55.614;37.326;2023-01-28T08:04:40;19.9;;;16.0;;
51515;SDS011;37603;55.614;37.326;2023-01-28T08:10:39;14.9;;;7.1;;
51515;SDS011;37603;55.614;37.326;2023-01-28T08:16:37;16.9;;;14.6;;
51515;SDS011;37603;55.614;37.326;2023-01-28T08:22:36;13.7;;;6.7;;
51515;SDS011;37603;55.614;37.326;2023-01-28T08:28:35;16.9;;;7.1;;
51515;SDS011;37603;55.614;37.326;2023-01-28T08:34:33;11.7;;;6.0;;
51515;SDS011;37603;55.614;37.326;2023-01-28T08:40:32;12.1;;;5.7;;
51515;SDS011;37603;55.614;37.326;2023-01-28T08:46:31;13.5;;;6.4;;
51515;SDS011;37603;55.614;37.326;2023-01-28T08:52:29;13.4;;;5.9;;
51515;SDS011;37603;55.614;37.326;2023-01-28T08:58:28;14.3;;;6.5;;
51515;SDS011;37603;55.614;37.326;2023-01-28T09:04:26;11.7;;;6.4;;
51515;SDS011;37603;55.614;37.326;2023-01-28T09:10:25;15.8;;;6.8;;
51515;SDS011;37603;55.614;37.326;2023-01-28T09:16:23;19.6;;;15.1;;
51515;SDS011;37603;55.614;37.326;2023-01-28T09:22:22;15.3;;;7.2;;
51515;SDS011;37603;55.614;37.326;2023-01-28T09:28:21;26.5;;;16.2;;
51515;SDS011;37603;55.614;37.326;2023-01-28T09:34:19;21.7;;;15.8;;
51515;SDS011;37603;55.614;37.326;2023-01-28T09:40:19;20.9;;;8.1;;
51515;SDS011;37603;55.614;37.326;2023-01-28T09:46:16;15.4;;;7.2;;
51515;SDS011;37603;55.614;37.326;2023-01-28T09:52:16;16.1;;;7.3;;
51515;SDS011;37603;55.614;37.326;2023-01-28T09:58:15;23.0;;;16.7;;
51515;SDS011;37603;55.614;37.326;2023-01-28T10:04:17;16.4;;;7.9;;
51515;SDS011;37603;55.614;37.326;2023-01-28T10:10:11;19.3;;;8.2;;
51515;SDS011;37603;55.614;37.326;2023-01-28T10:16:12;18.6;;;8.3;;
51515;SDS011;37603;55.614;37.326;2023-01-28T10:22:08;21.1;;;8.7;;
51515;SDS011;37603;55.614;37.326;2023-01-28T10:28:08;18.3;;;8.8;;
51515;SDS011;37603;55.614;37.326;2023-01-28T10:34:05;20.4;;;8.6;;
51515;SDS011;37603;55.614;37.326;2023-01-28T10:40:04;22.4;;;8.6;;
51515;SDS011;37603;55.614;37.326;2023-01-28T10:46:04;29.2;;;20.1;;
51515;SDS011;37603;55.614;37.326;2023-01-28T10:52:09;28.9;;;19.8;;
51515;SDS011;37603;55.614;37.326;2023-01-28T10:58:01;29.3;;;20.5;;
51515;SDS011;37603;55.614;37.326;2023-01-28T11:03:58;29.5;;;20.3;;
51515;SDS011;37603;55.614;37.326;2023-01-28T11:09:57;25.8;;;10.3;;
51515;SDS011;37603;55.614;37.326;2023-01-28T11:15:57;21.5;;;9.7;;
51515;SDS011;37603;55.614;37.326;2023-01-28T11:21:54;34.3;;;22.5;;
51515;SDS011;37603;55.614;37.326;2023-01-28T11:27:53;25.8;;;10.4;;
51515;SDS011;37603;55.614;37.326;2023-01-28T11:33:52;26.0;;;10.8;;
51515;SDS011;37603;55.614;37.326;2023-01-28T11:39:59;26.9;;;11.2;;
51515;SDS011;37603;55.614;37.326;2023-01-28T11:45:51;34.6;;;23.3;;
51515;SDS011;37603;55.614;37.326;2023-01-28T11:51:50;26.8;;;11.3;;
51515;SDS011;37603;55.614;37.326;2023-01-28T11:57:48;34.7;;;24.2;;
51515;SDS011;37603;55.614;37.326;2023-01-28T12:03:50;36.8;;;25.2;;
51515;SDS011;37603;55.614;37.326;2023-01-28T12:09:44;38.7;;;26.3;;
51515;SDS011;37603;55.614;37.326;2023-01-28T12:15:46;37.3;;;26.1;;
51515;SDS011;37603;55.614;37.326;2023-01-28T12:21:45;38.2;;;26.4;;
51515;SDS011;37603;55.614;37.326;2023-01-28T12:27:42;30.1;;;12.6;;
51515;SDS011;37603;55.614;37.326;2023-01-28T12:33:42;40.0;;;26.3;;
51515;SDS011;37603;55.614;37.326;2023-01-28T12:39:39;26.7;;;11.6;;
51515;SDS011;37603;55.614;37.326;2023-01-28T12:45:36;39.8;;;26.9;;
51515;SDS011;37603;55.614;37.326;2023-01-28T12:51:34;37.6;;;26.4;;
51515;SDS011;37603;55.614;37.326;2023-01-28T12:57:32;31.0;;;13.0;;
51515;SDS011;37603;55.614;37.326;2023-01-28T13:03:33;31.8;;;13.5;;
51515;SDS011;37603;55.614;37.326;2023-01-28T13:09:29;41.8;;;28.5;;
51515;SDS011;37603;55.614;37.326;2023-01-28T13:15:28;40.4;;;27.6;;
51515;SDS011;37603;55.614;37.326;2023-01-28T13:21:29;42.9;;;28.2;;
51515;SDS011;37603;55.614;37.326;2023-01-28T13:27:26;33.8;;;14.5;;
51515;SDS011;37603;55.614;37.326;2023-01-28T13:33:25;44.1;;;30.3;;
51515;SDS011;37603;55.614;37.326;2023-01-28T13:39:23;43.3;;;29.3;;
51515;SDS011;37603;55.614;37.326;2023-01-28T13:45:21;43.4;;;29.6;;
51515;SDS011;37603;55.614;37.326;2023-01-28T13:51:21;38.2;;;13.9;;
51515;SDS011;37603;55.614;37.326;2023-01-28T13:57:29;35.9;;;14.3;;
51515;SDS011;37603;55.614;37.326;2023-01-28T14:03:23;34.7;;;14.1;;
51515;SDS011;37603;55.614;37.326;2023-01-28T14:09:22;34.1;;;13.9;;
51515;SDS011;37603;55.614;37.326;2023-01-28T14:15:21;45.0;;;30.1;;
51515;SDS011;37603;55.614;37.326;2023-01-28T14:21:15;45.7;;;30.3;;
51515;SDS011;37603;55.614;37.326;2023-01-28T14:27:12;37.9;;;15.7;;
51515;SDS011;37603;55.614;37.326;2023-01-28T14:33:10;51.6;;;32.6;;
51515;SDS011;37603;55.614;37.326;2023-01-28T14:39:11;52.8;;;33.5;;
51515;SDS011;37603;55.614;37.326;2023-01-28T14:45:11;55.7;;;35.3;;
51515;SDS011;37603;55.614;37.326;2023-01-28T14:51:11;39.6;;;16.4;;
51515;SDS011;37603;55.614;37.326;2023-01-28T14:57:11;42.1;;;17.0;;
51515;SDS011;37603;55.614;37.326;2023-01-28T15:03:07;52.8;;;33.1;;
51515;SDS011;37603;55.614;37.326;2023-01-28T15:09:05;52.3;;;33.6;;
51515;SDS011;37603;55.614;37.326;2023-01-28T15:15:06;37.4;;;15.8;;
51515;SDS011;37603;55.614;37.326;2023-01-28T15:20:58;55.1;;;33.7;;
51515;SDS011;37603;55.614;37.326;2023-01-28T15:26:57;45.0;;;16.9;;
51515;SDS011;37603;55.614;37.326;2023-01-28T15:32:56;41.3;;;16.9;;
51515;SDS011;37603;55.614;37.326;2023-01-28T15:38:55;47.3;;;15.5;;
51515;SDS011;37603;55.614;37.326;2023-01-28T15:44:53;51.8;;;33.4;;
51515;SDS011;37603;55.614;37.326;2023-01-28T15:50:56;42.6;;;16.9;;
51515;SDS011;37603;55.614;37.326;2023-01-28T15:56:50;49.1;;;18.7;;
51515;SDS011;37603;55.614;37.326;2023-01-28T16:02:49;43.7;;;17.2;;
51515;SDS011;37603;55.614;37.326;2023-01-28T16:08:50;64.0;;;36.0;;
51515;SDS011;37603;55.614;37.326;2023-01-28T16:14:47;37.7;;;15.5;;
51515;SDS011;37603;55.614;37.326;2023-01-28T16:20:45;50.4;;;32.1;;
51515;SDS011;37603;55.614;37.326;2023-01-28T16:26:43;38.2;;;16.0;;
51515;SDS011;37603;55.614;37.326;2023-01-28T16:32:41;35.2;;;15.1;;
51515;SDS011;37603;55.614;37.326;2023-01-28T16:38:40;53.4;;;33.4;;
51515;SDS011;37603;55.614;37.326;2023-01-28T16:44:38;38.5;;;15.4;;
51515;SDS011;37603;55.614;37.326;2023-01-28T16:50:38;51.2;;;32.4;;
51515;SDS011;37603;55.614;37.326;2023-01-28T16:56:35;37.8;;;16.0;;
51515;SDS011;37603;55.614;37.326;2023-01-28T17:02:34;64.3;;;38.3;;
51515;SDS011;37603;55.614;37.326;2023-01-28T17:08:33;80.9;;;50.6;;
51515;SDS011;37603;55.614;37.326;2023-01-28T17:14:31;53.6;;;21.8;;
51515;SDS011;37603;55.614;37.326;2023-01-28T17:20:30;63.7;;;39.8;;
51515;SDS011;37603;55.614;37.326;2023-01-28T17:26:28;58.0;;;35.6;;
51515;SDS011;37603;55.614;37.326;2023-01-28T17:32:27;59.6;;;34.6;;
51515;SDS011;37603;55.614;37.326;2023-01-28T17:38:25;47.5;;;17.3;;
51515;SDS011;37603;55.614;37.326;2023-01-28T17:44:24;45.0;;;16.4;;
51515;SDS011;37603;55.614;37.326;2023-01-28T17:50:23;55.1;;;34.9;;
51515;SDS011;37603;55.614;37.326;2023-01-28T17:56:22;56.7;;;36.4;;
51515;SDS011;37603;55.614;37.326;2023-01-28T18:02:20;47.1;;;16.5;;
51515;SDS011;37603;55.614;37.326;2023-01-28T18:08:18;54.7;;;34.1;;
51515;SDS011;37603;55.614;37.326;2023-01-28T18:14:17;43.2;;;16.7;;
51515;SDS011;37603;55.614;37.326;2023-01-28T18:20:16;52.6;;;18.9;;
51515;SDS011;37603;55.614;37.326;2023-01-28T18:26:14;63.5;;;37.5;;
51515;SDS011;37603;55.614;37.326;2023-01-28T18:32:13;46.6;;;18.1;;
51515;SDS011;37603;55.614;37.326;2023-01-28T18:38:12;58.4;;;35.1;;
51515;SDS011;37603;55.614;37.326;2023-01-28T18:44:11;43.2;;;16.7;;
51515;SDS011;37603;55.614;37.326;2023-01-28T18:50:09;57.3;;;34.1;;
51515;SDS011;37603;55.614;37.326;2023-01-28T18:56:07;58.7;;;35.2;;
51515;SDS011;37603;55.614;37.326;2023-01-28T19:02:07;42.6;;;17.0;;
51515;SDS011;37603;55.614;37.326;2023-01-28T19:08:05;56.3;;;35.0;;
51515;SDS011;37603;55.614;37.326;2023-01-28T19:14:03;43.5;;;17.1;;
51515;SDS011;37603;55.614;37.326;2023-01-28T19:20:01;57.9;;;35.0;;
51515;SDS011;37603;55.614;37.326;2023-01-28T19:26:00;57.1;;;35.6;;
51515;SDS011;37603;55.614;37.326;2023-01-28T19:31:59;43.5;;;16.9;;
51515;SDS011;37603;55.614;37.326;2023-01-28T19:37:57;61.0;;;38.6;;
51515;SDS011;37603;55.614;37.326;2023-01-28T19:43:56;49.3;;;19.7;;
51515;SDS011;37603;55.614;37.326;2023-01-28T19:49:54;67.7;;;38.8;;
51515;SDS011;37603;55.614;37.326;2023-01-28T19:55:53;61.2;;;36.7;;
51515;SDS011;37603;55.614;37.326;2023-01-28T20:01:51;50.2;;;17.4;;
51515;SDS011;37603;55.614;37.326;2023-01-28T20:07:50;61.0;;;35.6;;
51515;SDS011;37603;55.614;37.326;2023-01-28T20:13:49;56.9;;;34.8;;
51515;SDS011;37603;55.614;37.326;2023-01-28T20:19:47;58.9;;;34.7;;
51515;SDS011;37603;55.614;37.326;2023-01-28T20:25:48;58.5;;;36.4;;
51515;SDS011;37603;55.614;37.326;2023-01-28T20:31:44;43.2;;;17.4;;
51515;SDS011;37603;55.614;37.326;2023-01-28T20:37:43;45.2;;;17.2;;
51515;SDS011;37603;55.614;37.326;2023-01-28T20:43:42;59.7;;;35.9;;
51515;SDS011;37603;55.614;37.326;2023-01-28T20:49:40;60.9;;;37.0;;
51515;SDS011;37603;55.614;37.326;2023-01-28T20:55:40;48.6;;;19.8;;
51515;SDS011;37603;55.614;37.326;2023-01-28T21:01:37;62.9;;;38.4;;
51515;SDS011;37603;55.614;37.326;2023-01-28T21:07:36;61.3;;;37.6;;
51515;SDS011;37603;55.614;37.326;2023-01-28T21:13:34;47.8;;;18.5;;
51515;SDS011;37603;55.614;37.326;2023-01-28T21:19:33;62.4;;;38.0;;
51515;SDS011;37603;55.614;37.326;2023-01-28T21:25:32;45.6;;;17.4;;
51515;SDS011;37603;55.614;37.326;2023-01-28T21:31:30;66.2;;;37.8;;
51515;SDS011;37603;55.614;37.326;2023-01-28T21:37:29;47.7;;;18.0;;
51515;SDS011;37603;55.614;37.326;2023-01-28T21:43:28;53.8;;;17.8;;
51515;SDS011;37603;55.614;37.326;2023-01-28T21:49:26;72.0;;;37.5;;
51515;SDS011;37603;55.614;37.326;2023-01-28T21:55:25;51.1;;;18.3;;
51515;SDS011;37603;55.614;37.326;2023-01-28T22:01:23;73.4;;;38.1;;
51515;SDS011;37603;55.614;37.326;2023-01-28T22:07:22;52.2;;;18.1;;
51515;SDS011;37603;55.614;37.326;2023-01-28T22:13:20;76.2;;;38.6;;
51515;SDS011;37603;55.614;37.326;2023-01-28T22:19:19;62.5;;;19.5;;
51515;SDS011;37603;55.614;37.326;2023-01-28T22:25:18;48.4;;;18.1;;
51515;SDS011;37603;55.614;37.326;2023-01-28T22:31:16;80.2;;;39.1;;
51515;SDS011;37603;55.614;37.326;2023-01-28T22:37:15;48.6;;;18.6;;
51515;SDS011;37603;55.614;37.326;2023-01-28T22:43:14;71.3;;;39.1;;
51515;SDS011;37603;55.614;37.326;2023-01-28T22:49:12;80.9;;;41.6;;
51515;SDS011;37603;55.614;37.326;2023-01-28T22:55:11;56.9;;;18.0;;
51515;SDS011;37603;55.614;37.326;2023-01-28T23:01:10;89.3;;;41.3;;
51515;SDS011;37603;55.614;37.326;2023-01-28T23:07:08;63.1;;;20.6;;
51515;SDS011;37603;55.614;37.326;2023-01-28T23:13:07;60.8;;;19.8;;
51515;SDS011;37603;55.614;37.326;2023-01-28T23:19:07;59.3;;;17.2;;
51515;SDS011;37603;55.614;37.326;2023-01-28T23:25:04;46.6;;;14.3;;
51515;SDS011;37603;55.614;37.326;2023-01-28T23:31:03;37.0;;;13.3;;
51515;SDS011;37603;55.614;37.326;2023-01-28T23:37:01;41.1;;;13.6;;
51515;SDS011;37603;55.614;37.326;2023-01-28T23:43:00;35.7;;;11.2;;
51515;SDS011;37603;55.614;37.326;2023-01-28T23:48:58;23.7;;;9.3;;
51515;SDS011;37603;55.614;37.326;2023-01-28T23:54:57;30.3;;;18.0;;
